sensor_id;sensor_type;location;lat;lon;timestamp;P1;durP1;ratioP1;P2;durP2;ratioP2
68097;SDS011;54886;47.036;15.466;2022-11-14T00:02:13;27.90;;;16.05;;
68097;SDS011;54886;47.036;15.466;2022-11-14T00:04:41;28.00;;;16.40;;
68097;SDS011;54886;47.036;15.466;2022-11-14T00:07:10;25.80;;;16.63;;
68097;SDS011;54886;47.036;15.466;2022-11-14T00:09:35;26.33;;;17.48;;
68097;SDS011;54886;47.036;15.466;2022-11-14T00:15:24;27.42;;;17.02;;
68097;SDS011;54886;47.036;15.466;2022-11-14T00:24:40;24.90;;;16.25;;
68097;SDS011;54886;47.036;15.466;2022-11-14T00:30:27;25.92;;;16.67;;
68097;SDS011;54886;47.036;15.466;2022-11-14T00:32:53;25.27;;;16.15;;
68097;SDS011;54886;47.036;15.466;2022-11-14T00:38:40;25.55;;;16.50;;
68097;SDS011;54886;47.036;15.466;2022-11-14T00:41:06;29.08;;;18.52;;
68097;SDS011;54886;47.036;15.466;2022-11-14T00:43:31;27.33;;;18.45;;
68097;SDS011;54886;47.036;15.466;2022-11-14T00:49:19;26.90;;;17.90;;
68097;SDS011;54886;47.036;15.466;2022-11-14T00:55:06;27.75;;;17.73;;
68097;SDS011;54886;47.036;15.466;2022-11-14T01:00:54;25.23;;;18.15;;
68097;SDS011;54886;47.036;15.466;2022-11-14T01:06:41;28.83;;;17.83;;
68097;SDS011;54886;47.036;15.466;2022-11-14T01:09:07;26.33;;;17.63;;
68097;SDS011;54886;47.036;15.466;2022-11-14T01:11:33;26.23;;;17.23;;
68097;SDS011;54886;47.036;15.466;2022-11-14T01:13:58;27.95;;;18.13;;
68097;SDS011;54886;47.036;15.466;2022-11-14T01:16:24;24.27;;;17.33;;
68097;SDS011;54886;47.036;15.466;2022-11-14T01:22:11;28.67;;;18.20;;
68097;SDS011;54886;47.036;15.466;2022-11-14T01:27:58;25.65;;;17.50;;
68097;SDS011;54886;47.036;15.466;2022-11-14T01:30:24;26.83;;;18.15;;
68097;SDS011;54886;47.036;15.466;2022-11-14T01:32:50;28.40;;;18.90;;
68097;SDS011;54886;47.036;15.466;2022-11-14T01:35:15;27.60;;;17.65;;
68097;SDS011;54886;47.036;15.466;2022-11-14T01:37:41;26.95;;;17.40;;
68097;SDS011;54886;47.036;15.466;2022-11-14T01:40:07;26.05;;;17.52;;
68097;SDS011;54886;47.036;15.466;2022-11-14T01:42:33;29.92;;;18.45;;
68097;SDS011;54886;47.036;15.466;2022-11-14T01:44:59;24.00;;;16.90;;
68097;SDS011;54886;47.036;15.466;2022-11-14T01:47:25;25.40;;;16.52;;
68097;SDS011;54886;47.036;15.466;2022-11-14T01:53:16;24.30;;;16.77;;
68097;SDS011;54886;47.036;15.466;2022-11-14T01:55:42;26.52;;;17.35;;
68097;SDS011;54886;47.036;15.466;2022-11-14T01:58:07;26.75;;;17.55;;
68097;SDS011;54886;47.036;15.466;2022-11-14T02:03:55;27.52;;;17.67;;
68097;SDS011;54886;47.036;15.466;2022-11-14T02:06:22;28.90;;;18.73;;
68097;SDS011;54886;47.036;15.466;2022-11-14T02:08:51;27.92;;;18.20;;
68097;SDS011;54886;47.036;15.466;2022-11-14T02:11:18;27.15;;;18.27;;
68097;SDS011;54886;47.036;15.466;2022-11-14T02:13:45;26.60;;;18.67;;
68097;SDS011;54886;47.036;15.466;2022-11-14T02:16:11;26.40;;;17.77;;
68097;SDS011;54886;47.036;15.466;2022-11-14T02:18:37;24.00;;;17.33;;
68097;SDS011;54886;47.036;15.466;2022-11-14T02:28:10;25.17;;;16.63;;
68097;SDS011;54886;47.036;15.466;2022-11-14T02:33:58;24.10;;;16.67;;
68097;SDS011;54886;47.036;15.466;2022-11-14T02:39:45;26.10;;;16.83;;
68097;SDS011;54886;47.036;15.466;2022-11-14T02:42:11;31.88;;;17.50;;
68097;SDS011;54886;47.036;15.466;2022-11-14T02:47:58;27.48;;;18.38;;
68097;SDS011;54886;47.036;15.466;2022-11-14T02:53:46;26.23;;;17.92;;
68097;SDS011;54886;47.036;15.466;2022-11-14T02:59:33;26.63;;;17.13;;
68097;SDS011;54886;47.036;15.466;2022-11-14T03:05:20;28.92;;;17.67;;
68097;SDS011;54886;47.036;15.466;2022-11-14T03:07:46;24.48;;;17.45;;
68097;SDS011;54886;47.036;15.466;2022-11-14T03:10:12;27.48;;;16.65;;
68097;SDS011;54886;47.036;15.466;2022-11-14T03:12:38;26.85;;;16.20;;
68097;SDS011;54886;47.036;15.466;2022-11-14T03:15:04;24.70;;;16.73;;
68097;SDS011;54886;47.036;15.466;2022-11-14T03:20:52;21.95;;;14.77;;
68097;SDS011;54886;47.036;15.466;2022-11-14T03:23:18;26.85;;;16.20;;
68097;SDS011;54886;47.036;15.466;2022-11-14T03:25:43;24.20;;;15.52;;
68097;SDS011;54886;47.036;15.466;2022-11-14T03:28:09;25.75;;;16.15;;
68097;SDS011;54886;47.036;15.466;2022-11-14T03:30:35;24.92;;;15.38;;
68097;SDS011;54886;47.036;15.466;2022-11-14T03:33:00;23.48;;;14.93;;
68097;SDS011;54886;47.036;15.466;2022-11-14T03:35:26;22.83;;;16.20;;
68097;SDS011;54886;47.036;15.466;2022-11-14T03:41:19;22.73;;;15.02;;
68097;SDS011;54886;47.036;15.466;2022-11-14T03:43:45;23.15;;;16.00;;
68097;SDS011;54886;47.036;15.466;2022-11-14T03:46:11;24.15;;;15.30;;
68097;SDS011;54886;47.036;15.466;2022-11-14T03:48:36;21.95;;;14.05;;
68097;SDS011;54886;47.036;15.466;2022-11-14T03:51:02;20.83;;;14.90;;
68097;SDS011;54886;47.036;15.466;2022-11-14T03:53:28;21.38;;;15.23;;
68097;SDS011;54886;47.036;15.466;2022-11-14T03:55:53;25.23;;;16.10;;
68097;SDS011;54886;47.036;15.466;2022-11-14T04:01:41;26.00;;;15.80;;
68097;SDS011;54886;47.036;15.466;2022-11-14T04:04:06;26.40;;;16.38;;
68097;SDS011;54886;47.036;15.466;2022-11-14T04:06:32;23.60;;;15.60;;
68097;SDS011;54886;47.036;15.466;2022-11-14T04:12:20;22.70;;;15.73;;
68097;SDS011;54886;47.036;15.466;2022-11-14T04:14:45;25.98;;;17.60;;
68097;SDS011;54886;47.036;15.466;2022-11-14T04:17:11;24.77;;;16.10;;
68097;SDS011;54886;47.036;15.466;2022-11-14T04:19:36;28.08;;;17.75;;
68097;SDS011;54886;47.036;15.466;2022-11-14T04:22:02;26.38;;;17.25;;
68097;SDS011;54886;47.036;15.466;2022-11-14T04:24:28;26.05;;;17.77;;
68097;SDS011;54886;47.036;15.466;2022-11-14T04:26:54;29.85;;;18.52;;
68097;SDS011;54886;47.036;15.466;2022-11-14T04:32:43;27.95;;;19.38;;
68097;SDS011;54886;47.036;15.466;2022-11-14T04:35:09;28.13;;;18.30;;
68097;SDS011;54886;47.036;15.466;2022-11-14T04:37:35;28.15;;;18.70;;
68097;SDS011;54886;47.036;15.466;2022-11-14T04:40:02;29.70;;;18.65;;
68097;SDS011;54886;47.036;15.466;2022-11-14T04:42:29;27.65;;;18.08;;
68097;SDS011;54886;47.036;15.466;2022-11-14T04:48:16;29.85;;;19.00;;
68097;SDS011;54886;47.036;15.466;2022-11-14T04:50:43;31.17;;;19.00;;
68097;SDS011;54886;47.036;15.466;2022-11-14T04:53:09;28.27;;;18.75;;
68097;SDS011;54886;47.036;15.466;2022-11-14T04:58:56;26.83;;;17.65;;
68097;SDS011;54886;47.036;15.466;2022-11-14T05:01:22;28.15;;;18.35;;
68097;SDS011;54886;47.036;15.466;2022-11-14T05:03:48;27.20;;;17.88;;
68097;SDS011;54886;47.036;15.466;2022-11-14T05:06:13;25.92;;;17.77;;
68097;SDS011;54886;47.036;15.466;2022-11-14T05:12:01;27.20;;;17.17;;
68097;SDS011;54886;47.036;15.466;2022-11-14T05:17:49;27.60;;;17.05;;
68097;SDS011;54886;47.036;15.466;2022-11-14T05:23:36;26.42;;;17.17;;
68097;SDS011;54886;47.036;15.466;2022-11-14T05:29:23;23.85;;;16.60;;
68097;SDS011;54886;47.036;15.466;2022-11-14T05:35:10;27.42;;;17.55;;
68097;SDS011;54886;47.036;15.466;2022-11-14T05:37:36;28.65;;;17.45;;
68097;SDS011;54886;47.036;15.466;2022-11-14T05:43:27;27.80;;;17.80;;
68097;SDS011;54886;47.036;15.466;2022-11-14T05:49:15;26.05;;;16.52;;
68097;SDS011;54886;47.036;15.466;2022-11-14T05:55:02;25.45;;;16.20;;
68097;SDS011;54886;47.036;15.466;2022-11-14T05:57:29;27.52;;;16.90;;
68097;SDS011;54886;47.036;15.466;2022-11-14T05:59:55;25.45;;;16.95;;
68097;SDS011;54886;47.036;15.466;2022-11-14T06:05:43;26.15;;;17.90;;
68097;SDS011;54886;47.036;15.466;2022-11-14T06:08:08;27.90;;;18.33;;
68097;SDS011;54886;47.036;15.466;2022-11-14T06:10:34;27.17;;;18.98;;
68097;SDS011;54886;47.036;15.466;2022-11-14T06:13:00;29.48;;;18.88;;
68097;SDS011;54886;47.036;15.466;2022-11-14T06:15:26;35.45;;;18.15;;
68097;SDS011;54886;47.036;15.466;2022-11-14T06:17:52;26.17;;;17.55;;
68097;SDS011;54886;47.036;15.466;2022-11-14T06:20:18;28.75;;;19.00;;
68097;SDS011;54886;47.036;15.466;2022-11-14T06:26:08;28.40;;;18.40;;
68097;SDS011;54886;47.036;15.466;2022-11-14T06:29:28;31.70;;;18.25;;
68097;SDS011;54886;47.036;15.466;2022-11-14T06:35:16;25.75;;;17.90;;
68097;SDS011;54886;47.036;15.466;2022-11-14T06:46:57;29.27;;;17.52;;
68097;SDS011;54886;47.036;15.466;2022-11-14T06:49:23;29.02;;;18.58;;
68097;SDS011;54886;47.036;15.466;2022-11-14T06:51:49;28.05;;;18.17;;
68097;SDS011;54886;47.036;15.466;2022-11-14T06:54:15;28.27;;;19.05;;
68097;SDS011;54886;47.036;15.466;2022-11-14T06:56:41;27.27;;;18.75;;
68097;SDS011;54886;47.036;15.466;2022-11-14T07:02:28;25.60;;;17.35;;
68097;SDS011;54886;47.036;15.466;2022-11-14T07:04:54;25.90;;;17.70;;
68097;SDS011;54886;47.036;15.466;2022-11-14T07:07:20;30.23;;;18.23;;
68097;SDS011;54886;47.036;15.466;2022-11-14T07:13:07;23.60;;;17.52;;
68097;SDS011;54886;47.036;15.466;2022-11-14T07:15:34;26.83;;;17.90;;
68097;SDS011;54886;47.036;15.466;2022-11-14T07:21:22;27.33;;;17.17;;
68097;SDS011;54886;47.036;15.466;2022-11-14T07:27:10;27.70;;;18.50;;
68097;SDS011;54886;47.036;15.466;2022-11-14T07:32:58;26.77;;;16.60;;
68097;SDS011;54886;47.036;15.466;2022-11-14T07:35:24;26.05;;;17.52;;
68097;SDS011;54886;47.036;15.466;2022-11-14T07:37:51;29.20;;;18.20;;
68097;SDS011;54886;47.036;15.466;2022-11-14T07:43:39;22.70;;;16.00;;
68097;SDS011;54886;47.036;15.466;2022-11-14T07:46:09;26.58;;;17.20;;
68097;SDS011;54886;47.036;15.466;2022-11-14T07:48:36;26.67;;;17.70;;
68097;SDS011;54886;47.036;15.466;2022-11-14T07:54:24;27.27;;;17.35;;
68097;SDS011;54886;47.036;15.466;2022-11-14T07:56:50;26.13;;;16.90;;
68097;SDS011;54886;47.036;15.466;2022-11-14T08:02:38;27.70;;;18.73;;
68097;SDS011;54886;47.036;15.466;2022-11-14T08:08:25;32.30;;;18.50;;
68097;SDS011;54886;47.036;15.466;2022-11-14T08:14:13;28.15;;;17.58;;
68097;SDS011;54886;47.036;15.466;2022-11-14T08:16:40;28.83;;;18.27;;
68097;SDS011;54886;47.036;15.466;2022-11-14T08:19:06;29.08;;;18.05;;
68097;SDS011;54886;47.036;15.466;2022-11-14T08:21:31;29.35;;;18.33;;
68097;SDS011;54886;47.036;15.466;2022-11-14T08:23:57;28.52;;;17.60;;
68097;SDS011;54886;47.036;15.466;2022-11-14T08:26:22;27.58;;;17.88;;
68097;SDS011;54886;47.036;15.466;2022-11-14T08:28:51;26.20;;;17.77;;
68097;SDS011;54886;47.036;15.466;2022-11-14T08:31:17;25.58;;;18.00;;
68097;SDS011;54886;47.036;15.466;2022-11-14T08:33:42;26.15;;;19.05;;
68097;SDS011;54886;47.036;15.466;2022-11-14T08:36:08;26.00;;;17.45;;
68097;SDS011;54886;47.036;15.466;2022-11-14T08:38:34;27.63;;;17.98;;
68097;SDS011;54886;47.036;15.466;2022-11-14T08:41:00;26.50;;;17.65;;
68097;SDS011;54886;47.036;15.466;2022-11-14T08:43:26;28.30;;;18.00;;
68097;SDS011;54886;47.036;15.466;2022-11-14T08:45:52;29.05;;;16.90;;
68097;SDS011;54886;47.036;15.466;2022-11-14T08:48:20;25.55;;;17.45;;
68097;SDS011;54886;47.036;15.466;2022-11-14T08:50:45;28.80;;;19.15;;
68097;SDS011;54886;47.036;15.466;2022-11-14T08:53:11;28.23;;;18.08;;
68097;SDS011;54886;47.036;15.466;2022-11-14T08:55:36;27.83;;;18.00;;
68097;SDS011;54886;47.036;15.466;2022-11-14T08:58:02;27.10;;;17.33;;
68097;SDS011;54886;47.036;15.466;2022-11-14T09:00:27;26.58;;;17.60;;
68097;SDS011;54886;47.036;15.466;2022-11-14T09:02:52;29.58;;;18.17;;
68097;SDS011;54886;47.036;15.466;2022-11-14T09:05:18;28.67;;;17.98;;
68097;SDS011;54886;47.036;15.466;2022-11-14T09:07:43;29.00;;;18.52;;
68097;SDS011;54886;47.036;15.466;2022-11-14T09:10:08;26.85;;;17.30;;
68097;SDS011;54886;47.036;15.466;2022-11-14T09:12:34;24.80;;;17.17;;
68097;SDS011;54886;47.036;15.466;2022-11-14T09:14:59;28.33;;;18.38;;
68097;SDS011;54886;47.036;15.466;2022-11-14T09:17:25;28.40;;;18.73;;
68097;SDS011;54886;47.036;15.466;2022-11-14T09:19:50;30.33;;;18.88;;
68097;SDS011;54886;47.036;15.466;2022-11-14T09:22:16;29.02;;;17.85;;
68097;SDS011;54886;47.036;15.466;2022-11-14T09:24:41;28.80;;;18.45;;
68097;SDS011;54886;47.036;15.466;2022-11-14T09:27:07;26.70;;;17.42;;
68097;SDS011;54886;47.036;15.466;2022-11-14T09:29:32;31.45;;;18.58;;
68097;SDS011;54886;47.036;15.466;2022-11-14T09:31:58;29.48;;;18.27;;
68097;SDS011;54886;47.036;15.466;2022-11-14T09:34:23;27.58;;;17.88;;
68097;SDS011;54886;47.036;15.466;2022-11-14T09:36:49;28.48;;;19.25;;
68097;SDS011;54886;47.036;15.466;2022-11-14T09:39:14;31.02;;;18.83;;
68097;SDS011;54886;47.036;15.466;2022-11-14T09:47:31;28.48;;;18.48;;
68097;SDS011;54886;47.036;15.466;2022-11-14T09:49:52;26.60;;;17.52;;
68097;SDS011;54886;47.036;15.466;2022-11-14T09:52:39;29.50;;;18.48;;
68097;SDS011;54886;47.036;15.466;2022-11-14T09:55:16;29.40;;;19.08;;
68097;SDS011;54886;47.036;15.466;2022-11-14T09:57:43;32.80;;;20.50;;
68097;SDS011;54886;47.036;15.466;2022-11-14T10:24:05;34.72;;;20.75;;
68097;SDS011;54886;47.036;15.466;2022-11-14T10:32:31;32.00;;;19.13;;
68097;SDS011;54886;47.036;15.466;2022-11-14T10:37:59;34.55;;;18.90;;
68097;SDS011;54886;47.036;15.466;2022-11-14T10:40:38;37.08;;;20.58;;
68097;SDS011;54886;47.036;15.466;2022-11-14T10:43:12;31.55;;;19.75;;
68097;SDS011;54886;47.036;15.466;2022-11-14T10:45:42;30.50;;;18.75;;
68097;SDS011;54886;47.036;15.466;2022-11-14T10:48:16;33.50;;;19.23;;
68097;SDS011;54886;47.036;15.466;2022-11-14T10:50:59;33.38;;;19.85;;
68097;SDS011;54886;47.036;15.466;2022-11-14T10:53:49;33.05;;;19.80;;
68097;SDS011;54886;47.036;15.466;2022-11-14T10:56:19;30.92;;;19.85;;
68097;SDS011;54886;47.036;15.466;2022-11-14T10:58:44;32.45;;;19.40;;
68097;SDS011;54886;47.036;15.466;2022-11-14T11:06:53;31.77;;;19.63;;
68097;SDS011;54886;47.036;15.466;2022-11-14T11:09:22;30.83;;;18.67;;
68097;SDS011;54886;47.036;15.466;2022-11-14T11:12:14;27.63;;;17.35;;
68097;SDS011;54886;47.036;15.466;2022-11-14T11:14:42;26.48;;;16.70;;
68097;SDS011;54886;47.036;15.466;2022-11-14T11:19:40;30.42;;;18.42;;
68097;SDS011;54886;47.036;15.466;2022-11-14T11:24:50;28.58;;;18.98;;
68097;SDS011;54886;47.036;15.466;2022-11-14T11:27:26;31.73;;;19.10;;
68097;SDS011;54886;47.036;15.466;2022-11-14T11:30:27;31.85;;;18.58;;
68097;SDS011;54886;47.036;15.466;2022-11-14T11:32:49;30.08;;;18.55;;
68097;SDS011;54886;47.036;15.466;2022-11-14T11:35:15;28.95;;;18.95;;
68097;SDS011;54886;47.036;15.466;2022-11-14T11:37:45;32.33;;;19.48;;
68097;SDS011;54886;47.036;15.466;2022-11-14T11:40:19;27.90;;;18.53;;
68097;SDS011;54886;47.036;15.466;2022-11-14T11:42:50;31.35;;;18.35;;
68097;SDS011;54886;47.036;15.466;2022-11-14T11:45:29;29.98;;;18.25;;
68097;SDS011;54886;47.036;15.466;2022-11-14T11:48:00;28.98;;;18.42;;
68097;SDS011;54886;47.036;15.466;2022-11-14T11:50:33;29.98;;;18.85;;
68097;SDS011;54886;47.036;15.466;2022-11-14T11:55:55;28.83;;;18.10;;
68097;SDS011;54886;47.036;15.466;2022-11-14T11:58:25;29.63;;;17.98;;
68097;SDS011;54886;47.036;15.466;2022-11-14T12:00:56;29.83;;;17.75;;
68097;SDS011;54886;47.036;15.466;2022-11-14T12:03:23;27.33;;;17.17;;
68097;SDS011;54886;47.036;15.466;2022-11-14T12:11:32;23.67;;;15.07;;
68097;SDS011;54886;47.036;15.466;2022-11-14T12:19:37;20.77;;;13.68;;
68097;SDS011;54886;47.036;15.466;2022-11-14T12:30:24;22.10;;;13.77;;
68097;SDS011;54886;47.036;15.466;2022-11-14T12:33:02;21.88;;;14.55;;
68097;SDS011;54886;47.036;15.466;2022-11-14T12:35:34;25.70;;;14.55;;
68097;SDS011;54886;47.036;15.466;2022-11-14T12:38:02;20.98;;;13.68;;
68097;SDS011;54886;47.036;15.466;2022-11-14T12:40:37;22.10;;;14.15;;
68097;SDS011;54886;47.036;15.466;2022-11-14T12:43:50;21.25;;;14.13;;
68097;SDS011;54886;47.036;15.466;2022-11-14T12:45:56;22.65;;;14.55;;
68097;SDS011;54886;47.036;15.466;2022-11-14T12:50:56;24.35;;;14.50;;
68097;SDS011;54886;47.036;15.466;2022-11-14T12:56:45;23.70;;;14.77;;
68097;SDS011;54886;47.036;15.466;2022-11-14T12:59:03;24.55;;;15.25;;
68097;SDS011;54886;47.036;15.466;2022-11-14T13:10:28;22.75;;;14.65;;
68097;SDS011;54886;47.036;15.466;2022-11-14T13:12:37;20.45;;;13.05;;
68097;SDS011;54886;47.036;15.466;2022-11-14T13:18:35;23.35;;;13.57;;
68097;SDS011;54886;47.036;15.466;2022-11-14T13:21:38;28.20;;;15.18;;
68097;SDS011;54886;47.036;15.466;2022-11-14T13:25:13;23.92;;;15.60;;
68097;SDS011;54886;47.036;15.466;2022-11-14T13:27:39;24.33;;;15.13;;
68097;SDS011;54886;47.036;15.466;2022-11-14T13:30:05;25.38;;;15.43;;
68097;SDS011;54886;47.036;15.466;2022-11-14T13:42:50;24.25;;;15.27;;
68097;SDS011;54886;47.036;15.466;2022-11-14T13:51:08;22.92;;;14.80;;
68097;SDS011;54886;47.036;15.466;2022-11-14T13:53:37;25.23;;;15.55;;
68097;SDS011;54886;47.036;15.466;2022-11-14T13:56:07;23.95;;;16.20;;
68097;SDS011;54886;47.036;15.466;2022-11-14T14:07:32;24.13;;;15.32;;
68097;SDS011;54886;47.036;15.466;2022-11-14T14:15:48;28.08;;;16.48;;
68097;SDS011;54886;47.036;15.466;2022-11-14T14:32:16;30.63;;;17.70;;
68097;SDS011;54886;47.036;15.466;2022-11-14T14:34:43;26.88;;;18.08;;
68097;SDS011;54886;47.036;15.466;2022-11-14T14:37:18;30.20;;;19.33;;
68097;SDS011;54886;47.036;15.466;2022-11-14T14:39:59;28.88;;;18.35;;
68097;SDS011;54886;47.036;15.466;2022-11-14T14:42:26;29.50;;;17.83;;
68097;SDS011;54886;47.036;15.466;2022-11-14T14:44:58;28.00;;;18.13;;
68097;SDS011;54886;47.036;15.466;2022-11-14T14:47:39;28.50;;;19.25;;
68097;SDS011;54886;47.036;15.466;2022-11-14T14:50:12;30.67;;;19.92;;
68097;SDS011;54886;47.036;15.466;2022-11-14T14:55:59;35.15;;;21.35;;
68097;SDS011;54886;47.036;15.466;2022-11-14T14:58:31;35.47;;;22.58;;
68097;SDS011;54886;47.036;15.466;2022-11-14T15:03:46;36.50;;;22.67;;
68097;SDS011;54886;47.036;15.466;2022-11-14T15:08:43;36.67;;;23.58;;
68097;SDS011;54886;47.036;15.466;2022-11-14T15:11:10;36.78;;;23.63;;
68097;SDS011;54886;47.036;15.466;2022-11-14T15:13:38;39.65;;;23.88;;
68097;SDS011;54886;47.036;15.466;2022-11-14T15:16:06;44.60;;;24.67;;
68097;SDS011;54886;47.036;15.466;2022-11-14T15:18:32;43.78;;;26.17;;
68097;SDS011;54886;47.036;15.466;2022-11-14T15:21:15;44.00;;;26.38;;
68097;SDS011;54886;47.036;15.466;2022-11-14T15:23:40;42.15;;;25.70;;
68097;SDS011;54886;47.036;15.466;2022-11-14T15:26:25;45.80;;;27.98;;
68097;SDS011;54886;47.036;15.466;2022-11-14T15:28:50;46.50;;;26.60;;
68097;SDS011;54886;47.036;15.466;2022-11-14T15:31:17;44.13;;;25.73;;
68097;SDS011;54886;47.036;15.466;2022-11-14T15:33:58;43.05;;;27.08;;
68097;SDS011;54886;47.036;15.466;2022-11-14T15:39:37;46.88;;;27.52;;
68097;SDS011;54886;47.036;15.466;2022-11-14T15:42:25;48.60;;;27.75;;
68097;SDS011;54886;47.036;15.466;2022-11-14T15:44:53;44.33;;;26.15;;
68097;SDS011;54886;47.036;15.466;2022-11-14T15:50:04;47.67;;;27.77;;
68097;SDS011;54886;47.036;15.466;2022-11-14T15:52:47;49.08;;;27.55;;
68097;SDS011;54886;47.036;15.466;2022-11-14T15:55:26;44.17;;;27.05;;
68097;SDS011;54886;47.036;15.466;2022-11-14T15:57:51;45.05;;;27.67;;
68097;SDS011;54886;47.036;15.466;2022-11-14T16:00:20;47.08;;;28.80;;
68097;SDS011;54886;47.036;15.466;2022-11-14T16:02:49;41.17;;;26.02;;
68097;SDS011;54886;47.036;15.466;2022-11-14T16:05:18;47.42;;;26.85;;
68097;SDS011;54886;47.036;15.466;2022-11-14T16:07:53;42.58;;;26.52;;
68097;SDS011;54886;47.036;15.466;2022-11-14T16:10:20;42.92;;;26.50;;
68097;SDS011;54886;47.036;15.466;2022-11-14T16:12:47;40.63;;;25.77;;
68097;SDS011;54886;47.036;15.466;2022-11-14T16:15:16;47.33;;;28.95;;
68097;SDS011;54886;47.036;15.466;2022-11-14T16:17:43;43.22;;;26.63;;
68097;SDS011;54886;47.036;15.466;2022-11-14T16:20:14;48.88;;;28.83;;
68097;SDS011;54886;47.036;15.466;2022-11-14T16:22:45;44.05;;;26.42;;
68097;SDS011;54886;47.036;15.466;2022-11-14T16:25:18;45.08;;;26.98;;
68097;SDS011;54886;47.036;15.466;2022-11-14T16:27:46;45.58;;;27.00;;
68097;SDS011;54886;47.036;15.466;2022-11-14T16:30:13;45.28;;;27.10;;
68097;SDS011;54886;47.036;15.466;2022-11-14T16:32:40;45.83;;;27.48;;
68097;SDS011;54886;47.036;15.466;2022-11-14T16:35:23;43.67;;;26.52;;
68097;SDS011;54886;47.036;15.466;2022-11-14T16:37:50;45.05;;;26.67;;
68097;SDS011;54886;47.036;15.466;2022-11-14T16:40:22;45.85;;;27.83;;
68097;SDS011;54886;47.036;15.466;2022-11-14T16:42:52;44.60;;;27.33;;
68097;SDS011;54886;47.036;15.466;2022-11-14T16:45:19;49.60;;;29.13;;
68097;SDS011;54886;47.036;15.466;2022-11-14T16:47:45;50.83;;;29.75;;
68097;SDS011;54886;47.036;15.466;2022-11-14T16:50:11;49.67;;;29.02;;
68097;SDS011;54886;47.036;15.466;2022-11-14T16:52:38;47.17;;;27.35;;
68097;SDS011;54886;47.036;15.466;2022-11-14T16:55:04;46.33;;;28.92;;
68097;SDS011;54886;47.036;15.466;2022-11-14T16:57:31;51.13;;;28.42;;
68097;SDS011;54886;47.036;15.466;2022-11-14T16:59:56;48.28;;;28.60;;
68097;SDS011;54886;47.036;15.466;2022-11-14T17:02:22;48.15;;;28.27;;
68097;SDS011;54886;47.036;15.466;2022-11-14T17:04:48;45.85;;;27.75;;
68097;SDS011;54886;47.036;15.466;2022-11-14T17:07:14;47.78;;;27.95;;
68097;SDS011;54886;47.036;15.466;2022-11-14T17:09:40;46.35;;;28.90;;
68097;SDS011;54886;47.036;15.466;2022-11-14T17:12:05;41.53;;;25.63;;
68097;SDS011;54886;47.036;15.466;2022-11-14T17:14:31;46.88;;;27.83;;
68097;SDS011;54886;47.036;15.466;2022-11-14T17:16:57;46.78;;;27.85;;
68097;SDS011;54886;47.036;15.466;2022-11-14T17:19:22;50.10;;;30.25;;
68097;SDS011;54886;47.036;15.466;2022-11-14T17:21:48;49.47;;;28.30;;
68097;SDS011;54886;47.036;15.466;2022-11-14T17:24:14;50.85;;;29.65;;
68097;SDS011;54886;47.036;15.466;2022-11-14T17:26:40;52.35;;;29.80;;
68097;SDS011;54886;47.036;15.466;2022-11-14T17:29:06;50.78;;;30.60;;
68097;SDS011;54886;47.036;15.466;2022-11-14T17:31:32;52.83;;;29.38;;
68097;SDS011;54886;47.036;15.466;2022-11-14T17:33:58;49.65;;;30.23;;
68097;SDS011;54886;47.036;15.466;2022-11-14T17:36:25;53.03;;;30.33;;
68097;SDS011;54886;47.036;15.466;2022-11-14T17:38:52;47.08;;;28.15;;
68097;SDS011;54886;47.036;15.466;2022-11-14T17:41:19;48.35;;;29.17;;
68097;SDS011;54886;47.036;15.466;2022-11-14T17:43:45;53.50;;;30.92;;
68097;SDS011;54886;47.036;15.466;2022-11-14T17:46:11;50.50;;;29.27;;
68097;SDS011;54886;47.036;15.466;2022-11-14T17:48:37;56.37;;;30.47;;
68097;SDS011;54886;47.036;15.466;2022-11-14T17:51:03;50.40;;;28.70;;
68097;SDS011;54886;47.036;15.466;2022-11-14T17:53:31;48.63;;;28.30;;
68097;SDS011;54886;47.036;15.466;2022-11-14T17:55:57;47.13;;;27.77;;
68097;SDS011;54886;47.036;15.466;2022-11-14T17:58:23;52.88;;;30.25;;
68097;SDS011;54886;47.036;15.466;2022-11-14T18:00:49;49.63;;;29.15;;
68097;SDS011;54886;47.036;15.466;2022-11-14T18:03:15;51.60;;;29.02;;
68097;SDS011;54886;47.036;15.466;2022-11-14T18:05:41;43.50;;;25.67;;
68097;SDS011;54886;47.036;15.466;2022-11-14T18:08:06;47.17;;;28.20;;
68097;SDS011;54886;47.036;15.466;2022-11-14T18:10:31;53.38;;;30.10;;
68097;SDS011;54886;47.036;15.466;2022-11-14T18:12:57;52.65;;;28.80;;
68097;SDS011;54886;47.036;15.466;2022-11-14T18:15:24;49.70;;;28.40;;
68097;SDS011;54886;47.036;15.466;2022-11-14T18:17:50;49.97;;;29.10;;
68097;SDS011;54886;47.036;15.466;2022-11-14T18:20:15;47.38;;;28.63;;
68097;SDS011;54886;47.036;15.466;2022-11-14T18:22:41;52.63;;;29.02;;
68097;SDS011;54886;47.036;15.466;2022-11-14T18:25:08;51.65;;;30.73;;
68097;SDS011;54886;47.036;15.466;2022-11-14T18:27:33;53.10;;;30.80;;
68097;SDS011;54886;47.036;15.466;2022-11-14T18:29:58;48.05;;;29.13;;
68097;SDS011;54886;47.036;15.466;2022-11-14T18:32:24;52.70;;;30.02;;
68097;SDS011;54886;47.036;15.466;2022-11-14T18:34:49;57.83;;;30.00;;
68097;SDS011;54886;47.036;15.466;2022-11-14T18:37:15;47.72;;;29.42;;
68097;SDS011;54886;47.036;15.466;2022-11-14T18:39:40;52.97;;;29.77;;
68097;SDS011;54886;47.036;15.466;2022-11-14T18:42:06;51.65;;;30.75;;
68097;SDS011;54886;47.036;15.466;2022-11-14T18:44:31;48.75;;;29.33;;
68097;SDS011;54886;47.036;15.466;2022-11-14T18:46:57;52.08;;;30.33;;
68097;SDS011;54886;47.036;15.466;2022-11-14T18:49:22;53.10;;;30.98;;
68097;SDS011;54886;47.036;15.466;2022-11-14T18:51:47;54.85;;;31.63;;
68097;SDS011;54886;47.036;15.466;2022-11-14T18:54:13;54.03;;;30.92;;
68097;SDS011;54886;47.036;15.466;2022-11-14T18:56:40;54.33;;;31.20;;
68097;SDS011;54886;47.036;15.466;2022-11-14T18:59:06;54.30;;;32.10;;
68097;SDS011;54886;47.036;15.466;2022-11-14T19:01:32;56.35;;;32.17;;
68097;SDS011;54886;47.036;15.466;2022-11-14T19:03:59;56.10;;;32.58;;
68097;SDS011;54886;47.036;15.466;2022-11-14T19:06:26;60.30;;;32.70;;
68097;SDS011;54886;47.036;15.466;2022-11-14T19:08:57;55.00;;;31.55;;
68097;SDS011;54886;47.036;15.466;2022-11-14T19:11:27;55.22;;;30.98;;
68097;SDS011;54886;47.036;15.466;2022-11-14T19:14:11;56.05;;;31.30;;
68097;SDS011;54886;47.036;15.466;2022-11-14T19:16:36;53.65;;;29.73;;
68097;SDS011;54886;47.036;15.466;2022-11-14T19:19:03;53.30;;;29.80;;
68097;SDS011;54886;47.036;15.466;2022-11-14T19:21:29;53.90;;;30.60;;
68097;SDS011;54886;47.036;15.466;2022-11-14T19:23:55;54.90;;;31.48;;
68097;SDS011;54886;47.036;15.466;2022-11-14T19:26:23;60.70;;;31.67;;
68097;SDS011;54886;47.036;15.466;2022-11-14T19:28:49;58.47;;;31.65;;
68097;SDS011;54886;47.036;15.466;2022-11-14T19:31:16;56.53;;;31.45;;
68097;SDS011;54886;47.036;15.466;2022-11-14T19:33:42;54.92;;;31.20;;
68097;SDS011;54886;47.036;15.466;2022-11-14T19:36:13;54.20;;;30.63;;
68097;SDS011;54886;47.036;15.466;2022-11-14T19:38:38;54.50;;;31.08;;